sensor_id;sensor_type;location;lat;lon;timestamp;pressure;altitude;pressure_sealevel;temperature;humidity
42761;BME280;31672;47.638;19.026;2023-05-02T00:03:51;100219.38;;;9.28;67.27
42761;BME280;31672;47.638;19.026;2023-05-02T00:08:54;100227.69;;;9.33;67.49
42761;BME280;31672;47.638;19.026;2023-05-02T00:13:57;100221.09;;;9.37;68.16
42761;BME280;31672;47.638;19.026;2023-05-02T00:19:00;100218.63;;;9.44;67.93
42761;BME280;31672;47.638;19.026;2023-05-02T00:24:04;100219.63;;;9.51;68.11
42761;BME280;31672;47.638;19.026;2023-05-02T00:29:07;100218.00;;;9.58;68.24
42761;BME280;31672;47.638;19.026;2023-05-02T00:34:10;100215.53;;;9.65;68.23
42761;BME280;31672;47.638;19.026;2023-05-02T00:39:14;100208.91;;;9.69;68.25
42761;BME280;31672;47.638;19.026;2023-05-02T00:44:17;100206.63;;;9.74;68.29
42761;BME280;31672;47.638;19.026;2023-05-02T00:49:20;100221.22;;;9.78;68.35
42761;BME280;31672;47.638;19.026;2023-05-02T00:54:23;100218.75;;;9.85;68.19
42761;BME280;31672;47.638;19.026;2023-05-02T00:59:26;100220.22;;;9.87;68.33
42761;BME280;31672;47.638;19.026;2023-05-02T01:10:12;100222.41;;;9.84;68.61
42761;BME280;31672;47.638;19.026;2023-05-02T01:15:20;100225.72;;;9.78;69.11
42761;BME280;31672;47.638;19.026;2023-05-02T01:20:27;100224.53;;;9.72;69.42
42761;BME280;31672;47.638;19.026;2023-05-02T01:30:42;100222.19;;;9.69;69.29
42761;BME280;31672;47.638;19.026;2023-05-02T01:35:50;100218.69;;;9.69;69.67
42761;BME280;31672;47.638;19.026;2023-05-02T01:40:55;100205.41;;;9.60;69.61
42761;BME280;31672;47.638;19.026;2023-05-02T01:46:02;100208.44;;;9.65;69.46
42761;BME280;31672;47.638;19.026;2023-05-02T01:51:07;100200.94;;;9.61;69.47
42761;BME280;31672;47.638;19.026;2023-05-02T01:56:11;100209.91;;;9.60;69.53
42761;BME280;31672;47.638;19.026;2023-05-02T02:01:15;100203.91;;;9.58;69.08
42761;BME280;31672;47.638;19.026;2023-05-02T02:06:20;100204.91;;;9.57;67.65
42761;BME280;31672;47.638;19.026;2023-05-02T02:11:36;100195.94;;;9.58;66.74
42761;BME280;31672;47.638;19.026;2023-05-02T02:16:42;100196.78;;;9.58;66.78
42761;BME280;31672;47.638;19.026;2023-05-02T02:21:47;100192.63;;;9.56;66.98
42761;BME280;31672;47.638;19.026;2023-05-02T02:26:51;100184.66;;;9.48;67.42
42761;BME280;31672;47.638;19.026;2023-05-02T02:31:54;100188.97;;;9.49;67.44
42761;BME280;31672;47.638;19.026;2023-05-02T02:37:15;100190.63;;;9.50;67.63
42761;BME280;31672;47.638;19.026;2023-05-02T02:42:38;100193.59;;;9.47;68.79
42761;BME280;31672;47.638;19.026;2023-05-02T02:53:17;100190.72;;;9.32;68.74
42761;BME280;31672;47.638;19.026;2023-05-02T02:58:45;100185.22;;;9.25;68.98
42761;BME280;31672;47.638;19.026;2023-05-02T03:03:50;100187.19;;;9.23;68.78
42761;BME280;31672;47.638;19.026;2023-05-02T03:08:55;100196.47;;;9.19;68.33
42761;BME280;31672;47.638;19.026;2023-05-02T03:13:58;100201.41;;;9.14;68.10
42761;BME280;31672;47.638;19.026;2023-05-02T03:19:02;100197.75;;;9.07;68.49
42761;BME280;31672;47.638;19.026;2023-05-02T03:24:06;100207.00;;;9.03;69.02
42761;BME280;31672;47.638;19.026;2023-05-02T03:29:09;100201.66;;;8.95;69.14
42761;BME280;31672;47.638;19.026;2023-05-02T03:34:12;100191.31;;;8.83;69.84
42761;BME280;31672;47.638;19.026;2023-05-02T03:39:16;100212.81;;;8.80;69.99
42761;BME280;31672;47.638;19.026;2023-05-02T03:44:19;100216.41;;;8.71;70.37
42761;BME280;31672;47.638;19.026;2023-05-02T03:49:22;100219.22;;;8.70;70.66
42761;BME280;31672;47.638;19.026;2023-05-02T03:54:25;100229.13;;;8.68;71.22
42761;BME280;31672;47.638;19.026;2023-05-02T03:59:27;100222.50;;;8.64;72.18
42761;BME280;31672;47.638;19.026;2023-05-02T04:04:31;100226.63;;;8.66;72.37
42761;BME280;31672;47.638;19.026;2023-05-02T04:09:34;100231.53;;;8.79;72.49
42761;BME280;31672;47.638;19.026;2023-05-02T04:14:37;100229.44;;;8.91;72.40
42761;BME280;31672;47.638;19.026;2023-05-02T04:19:41;100235.16;;;9.04;72.31
42761;BME280;31672;47.638;19.026;2023-05-02T04:24:44;100235.88;;;9.14;72.31
42761;BME280;31672;47.638;19.026;2023-05-02T04:29:48;100238.09;;;9.27;72.72
42761;BME280;31672;47.638;19.026;2023-05-02T04:34:51;100236.84;;;9.47;72.70
42761;BME280;31672;47.638;19.026;2023-05-02T04:39:54;100247.72;;;9.70;72.68
42761;BME280;31672;47.638;19.026;2023-05-02T04:44:59;100247.13;;;9.92;72.95
42761;BME280;31672;47.638;19.026;2023-05-02T04:50:02;100243.69;;;10.16;72.64
42761;BME280;31672;47.638;19.026;2023-05-02T04:55:05;100260.19;;;10.44;72.46
42761;BME280;31672;47.638;19.026;2023-05-02T05:00:09;100254.53;;;10.72;72.06
42761;BME280;31672;47.638;19.026;2023-05-02T05:05:13;100243.84;;;11.05;71.01
42761;BME280;31672;47.638;19.026;2023-05-02T05:10:16;100253.22;;;11.40;69.60
42761;BME280;31672;47.638;19.026;2023-05-02T05:15:19;100253.91;;;11.73;66.56
42761;BME280;31672;47.638;19.026;2023-05-02T05:20:24;100256.72;;;12.11;64.52
42761;BME280;31672;47.638;19.026;2023-05-02T05:25:27;100255.84;;;12.41;63.05
42761;BME280;31672;47.638;19.026;2023-05-02T05:30:30;100269.09;;;12.72;61.88
42761;BME280;31672;47.638;19.026;2023-05-02T05:35:33;100272.19;;;12.99;60.22
42761;BME280;31672;47.638;19.026;2023-05-02T05:40:36;100264.97;;;13.22;58.67
42761;BME280;31672;47.638;19.026;2023-05-02T05:45:39;100269.56;;;13.43;58.49
42761;BME280;31672;47.638;19.026;2023-05-02T05:50:42;100279.22;;;13.59;58.37
42761;BME280;31672;47.638;19.026;2023-05-02T05:55:45;100279.22;;;13.74;58.27
42761;BME280;31672;47.638;19.026;2023-05-02T06:00:48;100283.31;;;13.91;57.08
42761;BME280;31672;47.638;19.026;2023-05-02T06:05:52;100286.59;;;14.08;56.28
42761;BME280;31672;47.638;19.026;2023-05-02T06:10:55;100284.94;;;14.22;56.82
42761;BME280;31672;47.638;19.026;2023-05-02T06:16:01;100289.59;;;14.34;56.57
42761;BME280;31672;47.638;19.026;2023-05-02T06:21:05;100291.91;;;14.44;56.33
42761;BME280;31672;47.638;19.026;2023-05-02T06:26:08;100292.34;;;14.62;56.57
42761;BME280;31672;47.638;19.026;2023-05-02T06:31:12;100292.13;;;14.85;56.23
42761;BME280;31672;47.638;19.026;2023-05-02T06:36:15;100279.09;;;15.04;54.94
42761;BME280;31672;47.638;19.026;2023-05-02T06:41:18;100288.72;;;15.26;54.41
42761;BME280;31672;47.638;19.026;2023-05-02T06:46:23;100292.53;;;15.45;54.13
42761;BME280;31672;47.638;19.026;2023-05-02T06:51:26;100294.34;;;15.66;53.06
42761;BME280;31672;47.638;19.026;2023-05-02T06:56:29;100286.59;;;15.84;52.43
42761;BME280;31672;47.638;19.026;2023-05-02T07:01:32;100283.56;;;16.07;51.04
42761;BME280;31672;47.638;19.026;2023-05-02T07:06:36;100287.16;;;16.34;51.32
42761;BME280;31672;47.638;19.026;2023-05-02T07:11:39;100290.47;;;16.43;49.78
42761;BME280;31672;47.638;19.026;2023-05-02T07:16:42;100283.69;;;16.53;49.89
42761;BME280;31672;47.638;19.026;2023-05-02T07:21:45;100285.34;;;16.68;49.65
42761;BME280;31672;47.638;19.026;2023-05-02T07:26:48;100283.72;;;16.93;49.28
42761;BME280;31672;47.638;19.026;2023-05-02T07:31:51;100276.47;;;17.13;48.14
42761;BME280;31672;47.638;19.026;2023-05-02T07:36:54;100270.84;;;17.42;48.47
42761;BME280;31672;47.638;19.026;2023-05-02T07:41:57;100275.94;;;17.63;47.84
42761;BME280;31672;47.638;19.026;2023-05-02T07:47:01;100271.75;;;17.94;47.23
42761;BME280;31672;47.638;19.026;2023-05-02T07:52:04;100263.94;;;18.17;46.06
42761;BME280;31672;47.638;19.026;2023-05-02T07:57:07;100269.34;;;18.49;45.64
42761;BME280;31672;47.638;19.026;2023-05-02T08:02:10;100263.84;;;18.62;45.43
42761;BME280;31672;47.638;19.026;2023-05-02T08:07:15;100276.25;;;18.94;45.75
42761;BME280;31672;47.638;19.026;2023-05-02T08:12:19;100270.13;;;19.06;44.91
42761;BME280;31672;47.638;19.026;2023-05-02T08:17:22;100264.84;;;19.17;43.56
42761;BME280;31672;47.638;19.026;2023-05-02T08:22:25;100268.25;;;19.06;43.18
42761;BME280;31672;47.638;19.026;2023-05-02T08:27:28;100267.31;;;19.19;44.36
42761;BME280;31672;47.638;19.026;2023-05-02T08:32:31;100268.00;;;19.33;43.82
42761;BME280;31672;47.638;19.026;2023-05-02T08:37:34;100265.47;;;19.56;43.61
42761;BME280;31672;47.638;19.026;2023-05-02T08:42:41;100277.25;;;19.62;42.09
42761;BME280;31672;47.638;19.026;2023-05-02T08:47:46;100255.81;;;19.67;41.26
42761;BME280;31672;47.638;19.026;2023-05-02T08:52:52;100254.91;;;19.73;42.20
42761;BME280;31672;47.638;19.026;2023-05-02T08:57:57;100257.81;;;20.20;42.19
42761;BME280;31672;47.638;19.026;2023-05-02T09:03:31;100255.31;;;20.37;41.27
42761;BME280;31672;47.638;19.026;2023-05-02T09:08:36;100251.06;;;20.71;41.27
42761;BME280;31672;47.638;19.026;2023-05-02T09:13:42;100256.94;;;20.91;40.01
42761;BME280;31672;47.638;19.026;2023-05-02T09:18:47;100257.56;;;20.93;40.25
42761;BME280;31672;47.638;19.026;2023-05-02T09:23:55;100236.28;;;21.32;40.90
42761;BME280;31672;47.638;19.026;2023-05-02T09:29:03;100243.69;;;21.36;38.74
42761;BME280;31672;47.638;19.026;2023-05-02T09:34:15;100243.81;;;21.30;39.27
42761;BME280;31672;47.638;19.026;2023-05-02T09:39:27;100235.19;;;21.45;39.31
42761;BME280;31672;47.638;19.026;2023-05-02T09:44:37;100234.09;;;21.57;38.90
42761;BME280;31672;47.638;19.026;2023-05-02T09:49:42;100222.28;;;21.75;38.29
42761;BME280;31672;47.638;19.026;2023-05-02T09:54:48;100217.16;;;22.02;38.09
42761;BME280;31672;47.638;19.026;2023-05-02T09:59:57;100222.72;;;21.96;37.40
42761;BME280;31672;47.638;19.026;2023-05-02T10:05:00;100218.47;;;21.88;37.24
42761;BME280;31672;47.638;19.026;2023-05-02T10:10:07;100225.78;;;21.87;38.86
42761;BME280;31672;47.638;19.026;2023-05-02T10:15:15;100209.59;;;21.76;38.48
42761;BME280;31672;47.638;19.026;2023-05-02T10:20:35;100207.00;;;21.81;38.95
42761;BME280;31672;47.638;19.026;2023-05-02T10:25:39;100204.59;;;21.96;37.58
42761;BME280;31672;47.638;19.026;2023-05-02T10:30:43;100200.06;;;22.30;37.58
42761;BME280;31672;47.638;19.026;2023-05-02T10:35:47;100197.44;;;22.35;36.96
42761;BME280;31672;47.638;19.026;2023-05-02T10:40:58;100196.75;;;22.79;35.68
42761;BME280;31672;47.638;19.026;2023-05-02T10:46:03;100196.13;;;22.88;35.87
42761;BME280;31672;47.638;19.026;2023-05-02T10:51:30;100190.50;;;23.12;35.31
42761;BME280;31672;47.638;19.026;2023-05-02T10:56:33;100187.81;;;23.34;36.20
42761;BME280;31672;47.638;19.026;2023-05-02T11:01:37;100183.28;;;23.39;35.07
42761;BME280;31672;47.638;19.026;2023-05-02T11:12:07;100193.25;;;23.34;34.75
42761;BME280;31672;47.638;19.026;2023-05-02T11:17:10;100190.75;;;23.32;34.95
42761;BME280;31672;47.638;19.026;2023-05-02T11:37:55;100176.56;;;23.03;35.61
42761;BME280;31672;47.638;19.026;2023-05-02T11:43:00;100179.13;;;22.93;35.77
42761;BME280;31672;47.638;19.026;2023-05-02T11:48:06;100180.59;;;23.01;35.25
42761;BME280;31672;47.638;19.026;2023-05-02T11:53:15;100177.88;;;23.44;35.19
42761;BME280;31672;47.638;19.026;2023-05-02T11:58:25;100177.38;;;23.26;35.42
42761;BME280;31672;47.638;19.026;2023-05-02T12:03:32;100171.47;;;23.29;35.43
42761;BME280;31672;47.638;19.026;2023-05-02T12:08:36;100162.81;;;23.32;36.15
42761;BME280;31672;47.638;19.026;2023-05-02T12:13:47;100166.50;;;23.42;36.14
42761;BME280;31672;47.638;19.026;2023-05-02T12:18:52;100154.56;;;23.43;37.08
42761;BME280;31672;47.638;19.026;2023-05-02T12:23:55;100151.66;;;23.72;36.18
42761;BME280;31672;47.638;19.026;2023-05-02T12:28:59;100147.66;;;24.07;36.04
42761;BME280;31672;47.638;19.026;2023-05-02T12:34:03;100145.72;;;24.02;35.42
42761;BME280;31672;47.638;19.026;2023-05-02T12:39:06;100141.81;;;23.93;35.17
42761;BME280;31672;47.638;19.026;2023-05-02T12:44:09;100146.56;;;23.75;35.25
42761;BME280;31672;47.638;19.026;2023-05-02T12:49:12;100135.69;;;23.54;36.50
42761;BME280;31672;47.638;19.026;2023-05-02T12:54:19;100133.25;;;23.30;35.39
42761;BME280;31672;47.638;19.026;2023-05-02T12:59:28;100132.84;;;23.16;35.13
42761;BME280;31672;47.638;19.026;2023-05-02T13:04:39;100121.78;;;23.01;34.72
42761;BME280;31672;47.638;19.026;2023-05-02T13:09:43;100127.59;;;22.88;34.20
42761;BME280;31672;47.638;19.026;2023-05-02T13:14:46;100119.44;;;22.88;34.46
42761;BME280;31672;47.638;19.026;2023-05-02T13:19:49;100114.75;;;22.83;34.41
42761;BME280;31672;47.638;19.026;2023-05-02T13:25:04;100112.06;;;22.66;34.59
42761;BME280;31672;47.638;19.026;2023-05-02T13:30:08;100107.09;;;22.58;34.92
42761;BME280;31672;47.638;19.026;2023-05-02T13:35:12;100103.22;;;22.54;35.43
42761;BME280;31672;47.638;19.026;2023-05-02T13:40:17;100114.25;;;22.48;35.78
42761;BME280;31672;47.638;19.026;2023-05-02T13:45:20;100109.00;;;22.41;35.55
42761;BME280;31672;47.638;19.026;2023-05-02T13:50:24;100103.28;;;22.37;35.66
42761;BME280;31672;47.638;19.026;2023-05-02T13:55:26;100111.88;;;22.34;35.06
42761;BME280;31672;47.638;19.026;2023-05-02T14:00:29;100110.50;;;22.32;34.90
42761;BME280;31672;47.638;19.026;2023-05-02T14:05:33;100103.94;;;22.28;35.45
42761;BME280;31672;47.638;19.026;2023-05-02T14:10:36;100106.25;;;22.19;35.70
42761;BME280;31672;47.638;19.026;2023-05-02T14:15:39;100103.53;;;22.19;35.96
42761;BME280;31672;47.638;19.026;2023-05-02T14:20:42;100097.06;;;22.20;36.64
42761;BME280;31672;47.638;19.026;2023-05-02T14:25:45;100106.72;;;22.16;36.08
42761;BME280;31672;47.638;19.026;2023-05-02T14:30:49;100115.41;;;22.01;35.98
42761;BME280;31672;47.638;19.026;2023-05-02T14:35:52;100143.84;;;21.47;41.41
42761;BME280;31672;47.638;19.026;2023-05-02T14:40:56;100139.75;;;20.69;43.65
42761;BME280;31672;47.638;19.026;2023-05-02T14:45:59;100126.31;;;20.27;49.38
42761;BME280;31672;47.638;19.026;2023-05-02T14:51:04;100129.19;;;19.90;53.58
42761;BME280;31672;47.638;19.026;2023-05-02T14:56:12;100127.53;;;19.77;55.72
42761;BME280;31672;47.638;19.026;2023-05-02T15:01:21;100126.94;;;19.75;56.08
42761;BME280;31672;47.638;19.026;2023-05-02T15:06:28;100130.72;;;19.86;57.50
42761;BME280;31672;47.638;19.026;2023-05-02T15:11:35;100125.56;;;19.96;56.24
42761;BME280;31672;47.638;19.026;2023-05-02T15:16:38;100121.94;;;20.02;55.56
42761;BME280;31672;47.638;19.026;2023-05-02T15:21:41;100118.31;;;20.09;55.23
42761;BME280;31672;47.638;19.026;2023-05-02T15:26:44;100112.25;;;20.13;55.33
42761;BME280;31672;47.638;19.026;2023-05-02T15:31:48;100111.56;;;20.18;55.20
42761;BME280;31672;47.638;19.026;2023-05-02T15:36:51;100114.00;;;20.19;54.49
42761;BME280;31672;47.638;19.026;2023-05-02T15:41:54;100110.72;;;20.17;54.62
42761;BME280;31672;47.638;19.026;2023-05-02T15:46:58;100118.25;;;20.15;54.48
42761;BME280;31672;47.638;19.026;2023-05-02T15:52:02;100124.47;;;20.16;54.77
42761;BME280;31672;47.638;19.026;2023-05-02T15:57:05;100118.97;;;20.22;54.76
42761;BME280;31672;47.638;19.026;2023-05-02T16:02:08;100110.13;;;20.27;54.33
42761;BME280;31672;47.638;19.026;2023-05-02T16:07:11;100111.09;;;20.32;54.11
42761;BME280;31672;47.638;19.026;2023-05-02T16:12:14;100108.19;;;20.34;54.82
42761;BME280;31672;47.638;19.026;2023-05-02T16:17:17;100113.34;;;20.36;55.80
42761;BME280;31672;47.638;19.026;2023-05-02T16:22:20;100100.91;;;20.35;56.96
42761;BME280;31672;47.638;19.026;2023-05-02T16:27:24;100105.94;;;20.31;56.54
42761;BME280;31672;47.638;19.026;2023-05-02T16:32:27;100107.00;;;20.30;55.97
42761;BME280;31672;47.638;19.026;2023-05-02T16:37:32;100104.16;;;20.25;55.79
42761;BME280;31672;47.638;19.026;2023-05-02T16:42:35;100111.91;;;20.21;56.85
42761;BME280;31672;47.638;19.026;2023-05-02T16:47:38;100119.53;;;20.13;56.87
42761;BME280;31672;47.638;19.026;2023-05-02T16:52:42;100113.41;;;20.05;57.54
42761;BME280;31672;47.638;19.026;2023-05-02T16:57:46;100112.91;;;19.97;57.21
42761;BME280;31672;47.638;19.026;2023-05-02T17:02:49;100122.41;;;19.88;57.22
42761;BME280;31672;47.638;19.026;2023-05-02T17:07:57;100119.66;;;19.76;57.96
42761;BME280;31672;47.638;19.026;2023-05-02T17:13:00;100122.69;;;19.68;58.79
42761;BME280;31672;47.638;19.026;2023-05-02T17:18:03;100124.13;;;19.52;59.04
42761;BME280;31672;47.638;19.026;2023-05-02T17:23:07;100134.13;;;19.33;58.74
42761;BME280;31672;47.638;19.026;2023-05-02T17:28:10;100146.25;;;19.06;56.91
42761;BME280;31672;47.638;19.026;2023-05-02T17:33:14;100157.47;;;18.84;55.80
42761;BME280;31672;47.638;19.026;2023-05-02T17:38:27;100169.84;;;18.67;55.41
42761;BME280;31672;47.638;19.026;2023-05-02T17:43:30;100183.19;;;18.55;54.53
42761;BME280;31672;47.638;19.026;2023-05-02T17:48:33;100197.75;;;18.48;53.67
42761;BME280;31672;47.638;19.026;2023-05-02T17:53:37;100193.66;;;18.38;56.14
42761;BME280;31672;47.638;19.026;2023-05-02T17:58:40;100186.78;;;18.17;59.31
42761;BME280;31672;47.638;19.026;2023-05-02T18:03:43;100186.59;;;17.81;62.68
42761;BME280;31672;47.638;19.026;2023-05-02T18:08:47;100193.97;;;17.47;64.61
42761;BME280;31672;47.638;19.026;2023-05-02T18:13:50;100182.28;;;17.15;65.72
42761;BME280;31672;47.638;19.026;2023-05-02T18:18:53;100186.66;;;16.96;66.41
42761;BME280;31672;47.638;19.026;2023-05-02T18:23:56;100191.44;;;16.88;66.20
42761;BME280;31672;47.638;19.026;2023-05-02T18:28:59;100206.75;;;16.80;66.71
42761;BME280;31672;47.638;19.026;2023-05-02T18:34:02;100206.94;;;16.72;66.76
42761;BME280;31672;47.638;19.026;2023-05-02T18:39:09;100215.38;;;16.69;66.43
42761;BME280;31672;47.638;19.026;2023-05-02T18:44:12;100226.34;;;16.68;65.88
42761;BME280;31672;47.638;19.026;2023-05-02T18:49:16;100243.03;;;16.70;65.05
42761;BME280;31672;47.638;19.026;2023-05-02T18:54:19;100229.44;;;16.71;64.61
42761;BME280;31672;47.638;19.026;2023-05-02T18:59:25;100238.53;;;16.70;65.31
42761;BME280;31672;47.638;19.026;2023-05-02T19:04:31;100249.63;;;16.60;67.44
42761;BME280;31672;47.638;19.026;2023-05-02T19:09:34;100243.66;;;16.52;67.55
42761;BME280;31672;47.638;19.026;2023-05-02T19:14:38;100243.88;;;16.44;68.44
42761;BME280;31672;47.638;19.026;2023-05-02T19:19:42;100257.22;;;16.30;70.39
42761;BME280;31672;47.638;19.026;2023-05-02T19:24:48;100263.59;;;16.16;71.51
42761;BME280;31672;47.638;19.026;2023-05-02T19:29:53;100282.34;;;16.03;72.72
42761;BME280;31672;47.638;19.026;2023-05-02T19:34:56;100289.47;;;15.89;73.67
42761;BME280;31672;47.638;19.026;2023-05-02T19:39:59;100286.59;;;15.84;73.39
42761;BME280;31672;47.638;19.026;2023-05-02T19:45:03;100323.28;;;15.84;72.59
42761;BME280;31672;47.638;19.026;2023-05-02T19:50:07;100348.84;;;15.86;73.22
42761;BME280;31672;47.638;19.026;2023-05-02T19:55:11;100331.91;;;15.79;74.03
42761;BME280;31672;47.638;19.026;2023-05-02T20:00:14;100325.19;;;15.62;76.64
42761;BME280;31672;47.638;19.026;2023-05-02T20:05:18;100332.28;;;15.41;77.85
42761;BME280;31672;47.638;19.026;2023-05-02T20:10:21;100330.28;;;15.22;79.80
42761;BME280;31672;47.638;19.026;2023-05-02T20:15:24;100325.47;;;15.11;80.16
42761;BME280;31672;47.638;19.026;2023-05-02T20:20:28;100333.06;;;15.07;79.96
42761;BME280;31672;47.638;19.026;2023-05-02T20:25:31;100344.41;;;15.09;78.94
42761;BME280;31672;47.638;19.026;2023-05-02T20:30:34;100358.66;;;15.16;78.25
42761;BME280;31672;47.638;19.026;2023-05-02T20:35:37;100361.78;;;15.20;77.75
42761;BME280;31672;47.638;19.026;2023-05-02T20:40:40;100352.34;;;15.24;78.37
42761;BME280;31672;47.638;19.026;2023-05-02T20:45:45;100353.56;;;15.21;79.45
42761;BME280;31672;47.638;19.026;2023-05-02T20:50:53;100362.34;;;15.15;79.75
42761;BME280;31672;47.638;19.026;2023-05-02T20:55:56;100346.56;;;14.99;80.99
42761;BME280;31672;47.638;19.026;2023-05-02T21:00:59;100371.38;;;14.86;82.52
42761;BME280;31672;47.638;19.026;2023-05-02T21:06:03;100356.50;;;14.62;83.54
42761;BME280;31672;47.638;19.026;2023-05-02T21:11:15;100373.34;;;14.41;84.93
42761;BME280;31672;47.638;19.026;2023-05-02T21:16:19;100352.09;;;14.18;86.66
42761;BME280;31672;47.638;19.026;2023-05-02T21:21:23;100353.13;;;14.03;88.13
42761;BME280;31672;47.638;19.026;2023-05-02T21:26:27;100357.75;;;13.94;88.69
42761;BME280;31672;47.638;19.026;2023-05-02T21:31:31;100357.88;;;13.86;89.20
42761;BME280;31672;47.638;19.026;2023-05-02T21:36:35;100368.00;;;13.76;90.04
42761;BME280;31672;47.638;19.026;2023-05-02T21:41:38;100371.84;;;13.73;90.55
42761;BME280;31672;47.638;19.026;2023-05-02T21:46:41;100379.22;;;13.71;90.90
42761;BME280;31672;47.638;19.026;2023-05-02T21:51:44;100378.13;;;13.65;91.25
42761;BME280;31672;47.638;19.026;2023-05-02T21:56:47;100380.16;;;13.63;91.59
42761;BME280;31672;47.638;19.026;2023-05-02T22:01:50;100380.69;;;13.59;91.89
42761;BME280;31672;47.638;19.026;2023-05-02T22:06:54;100379.22;;;13.56;92.25
42761;BME280;31672;47.638;19.026;2023-05-02T22:11:57;100383.63;;;13.49;92.88
42761;BME280;31672;47.638;19.026;2023-05-02T22:17:00;100401.84;;;13.46;93.59
42761;BME280;31672;47.638;19.026;2023-05-02T22:22:06;100397.44;;;13.38;93.91
42761;BME280;31672;47.638;19.026;2023-05-02T22:27:09;100404.13;;;13.34;94.37
42761;BME280;31672;47.638;19.026;2023-05-02T22:32:12;100416.84;;;13.32;94.85
42761;BME280;31672;47.638;19.026;2023-05-02T22:37:15;100423.63;;;13.34;95.07
42761;BME280;31672;47.638;19.026;2023-05-02T22:42:19;100434.81;;;13.38;94.92
42761;BME280;31672;47.638;19.026;2023-05-02T22:47:22;100439.75;;;13.41;94.97
42761;BME280;31672;47.638;19.026;2023-05-02T22:52:26;100449.09;;;13.45;95.07
42761;BME280;31672;47.638;19.026;2023-05-02T22:57:29;100445.03;;;13.49;95.30
42761;BME280;31672;47.638;19.026;2023-05-02T23:02:34;100444.19;;;13.49;95.35
42761;BME280;31672;47.638;19.026;2023-05-02T23:07:38;100439.75;;;13.41;96.17
42761;BME280;31672;47.638;19.026;2023-05-02T23:12:41;100436.50;;;13.31;96.87
42761;BME280;31672;47.638;19.026;2023-05-02T23:17:44;100432.91;;;13.24;96.96
42761;BME280;31672;47.638;19.026;2023-05-02T23:22:47;100439.59;;;13.20;97.83
42761;BME280;31672;47.638;19.026;2023-05-02T23:27:50;100444.63;;;13.15;98.46
42761;BME280;31672;47.638;19.026;2023-05-02T23:32:53;100434.13;;;13.13;99.14
42761;BME280;31672;47.638;19.026;2023-05-02T23:38:04;100442.59;;;13.17;100.00
42761;BME280;31672;47.638;19.026;2023-05-02T23:43:09;100425.28;;;13.12;100.00
42761;BME280;31672;47.638;19.026;2023-05-02T23:48:12;100443.97;;;13.12;100.00
42761;BME280;31672;47.638;19.026;2023-05-02T23:53:15;100435.31;;;13.10;100.00
42761;BME280;31672;47.638;19.026;2023-05-02T23:58:18;100428.97;;;13.11;100.00
